Información del aeropuerto SCJO

Información de pista
Pista 15 Longitud 6398 ft Anchura 118 ft
Elevación 190 ft Umbral ft Rumbo 155
Pista 33 Longitud 6398 ft Anchura 118 ft
Elevación 188 ft Umbral ft Rumbo 335
Frecuencias del aeropuerto
Tipo APP Nombre PUERTO MON Frecuencia 119.5 MHZ
Tipo GND Nombre OSORNO GND Frecuencia 121.7 MHZ
Tipo TWR Nombre OSORNO TWR Frecuencia 118.9 MHZ
Radioayudas del aeropuerto
Tipo VOR-DME Nombre Osorno Frecuencia 116500 KHZ
Tipo NDB Nombre Osorno Frecuencia 225 KHZ
Información meteorológica del aeropuerto y NOTAM
ADDS - METARS form results

(1110 UTC 30 June 2022)
Data provider http://aviationweather.gov/metar/data/
 
METAR text: SCJO 301100Z AUTO 04006KT 9999 FEW041/// BKN071/// 05/05 Q1019
Conditions at: SCJO (OSORNO/CANAL BAJ, CL) observed 1100 UTC 30 June 2022
Temperature: 5.0°C (41°F)
Dewpoint: 5.0°C (41°F) [RH = 100%]
Pressure (altimeter): 30.09 inches Hg (1019.0 mb)
Winds: from the NE (40 degrees) at 7 MPH (6 knots; 3.1 m/s)
Visibility: 6 or more miles (10+ km)
Ceiling: 7100 feet AGL
Clouds: few clouds at 4100 feet AGL
broken clouds at 7100 feet AGL
Weather: no significant weather observed at this time